• Join FlightAware (Why Join?)
  • Login
  • US Flag 
04:26PM EDT


 

Airport Tracker/Info


-or-


 

Live Flight TrackerFlight Track Log ✈ N55NG ✈ 27-Dec-2013 ✈ KPBI - KVJI

Flight Track Log - Related Links

Times and Time Zones

All times are in EST time to prevent confusion due to time zone crossing. See the N55NG flight status page for this flight to view local times or setup timezone preferences in your user account.

Time Position Orientation Groundspeed Altitude Reporting Facility
EST Latitude Longitude Course Direction KTS MPH feet Rate Location/Type
07:06PM 26.6864 -79.9700 80° East 200 230 7,500  Level Miami Center
07:07PM 26.7300 -79.9875 340° North 107 123 10,300 2,220 Climbing Miami Center
07:08PM 26.7594 -80.0672 292° West 195 224 12,000 1,080 Climbing Miami Center
07:09PM 26.7972 -80.1567 295° West 304 350 12,500 960 Climbing Miami Center
07:10PM 27.2181 -80.1894 336° Northwest  Level Estimated
07:10PM 26.8344 -80.2578 292° West 345 397 14,000  Level Miami Center
07:11PM 26.8908 -80.3481 305° West 350 403 14,000 780 Level Miami Center
07:12PM 26.9819 -80.3858 340° North 360 414 15,600 1,740 Climbing Miami Center
07:13PM 27.0747 -80.4236 340° North 360 414 17,500 1,740 Climbing Miami Center
07:14PM 27.1758 -80.4733 336° Northwest 360 414 19,100 1,560 Climbing Miami Center
07:15PM 27.2731 -80.5114 341° North 360 414 20,700 1,500 Climbing Miami Center
07:16PM 27.3703 -80.5519 340° North 365 420 22,200 1,500 Climbing Miami Center
07:17PM 27.4672 -80.5925 340° North 370 426 23,700 1,500 Climbing Miami Center
07:18PM 27.5644 -80.6331 340° North 370 426 25,200 1,500 Climbing Miami Center
07:19PM 27.6614 -80.6739 340° North 370 426 26,700 1,500 Climbing Miami Center
07:20PM 27.7606 -80.7147 340° North 370 426 28,200 1,200 Climbing Miami Center
07:21PM 27.8597 -80.7556 340° North 370 426 29,200 960 Climbing Miami Center
07:22PM 27.9567 -80.7942 341° North 387 445 30,200 960 Climbing Miami Center
07:23PM 28.0639 -80.8403 339° North 399 459 31,200 960 Climbing Miami Center
07:24PM 28.1669 -80.8861 339° North 404 465 32,200 1,020 Climbing Miami Center
07:25PM 28.3378 -80.9564 340° North 405 466 33,800 1,020 Climbing Jacksonville Center
07:26PM 28.4492 -81.0061 339° North 413 475 34,800 960 Climbing Jacksonville Center
07:27PM 28.5542 -81.0514 339° North 413 475 35,800 1,200 Climbing Jacksonville Center
07:28PM 28.6550 -81.0969 338° Northwest 408 470 37,300 1,380 Climbing Jacksonville Center
07:29PM 28.7578 -81.1331 343° North 391 450 38,600 900 Climbing Jacksonville Center
07:30PM 28.8686 -81.1569 349° North 385 443 39,200 540 Climbing Jacksonville Center
07:31PM 28.9775 -81.1836 348° North 390 449 39,700 480 Climbing Jacksonville Center
07:32PM 29.0906 -81.2125 347° North 405 466 40,200 480 Climbing Jacksonville Center
07:33PM 29.2036 -81.2369 349° North 410 472 40,700 360 Climbing Jacksonville Center
07:34PM 29.3167 -81.2658 347° North 410 472 41,000 120 Climbing Jacksonville Center
07:35PM 29.4339 -81.2903 350° North 410 472 41,000  Level Jacksonville Center
07:36PM 29.5469 -81.3217 346° North 415 478 41,000  Level Jacksonville Center
07:37PM 29.6683 -81.3508 348° North 421 484 41,000  Level Jacksonville Center
07:38PM 29.7900 -81.3778 349° North 432 497 41,000  Level Jacksonville Center
07:39PM 29.9092 -81.4069 348° North 432 497 41,000  Level Jacksonville Center
07:40PM 30.0306 -81.4364 348° North 432 497 41,000  Level Jacksonville Center
07:41PM 30.1519 -81.4633 349° North 432 497 41,000  Level Jacksonville Center
07:42PM 30.2733 -81.4928 348° North 432 497 41,000  Level Jacksonville Center
07:43PM 30.3969 -81.5175 350° North 432 497 41,000  Level Jacksonville Center
07:44PM 30.5264 -81.5253 357° North 442 509 41,000  Level Jacksonville Center
07:45PM 30.6414 -81.5406 353° North 461 531 41,000  Level Jacksonville Center
07:46PM 30.7669 -81.5508 356° North 461 531 41,000  Level Jacksonville Center
07:47PM 30.8922 -81.5636 355° North 456 525 41,000  Level Jacksonville Center
07:48PM 31.0156 -81.5764 355° North 456 525 41,000  Level Jacksonville Center
07:49PM 31.1389 -81.5892 355° North 446 513 41,000  Level Jacksonville Center
07:50PM 31.2622 -81.6019 355° North 441 507 41,000  Level Jacksonville Center
07:51PM 31.3939 -81.6125 356° North 441 507 41,000  Level Jacksonville Center
07:52PM 31.5172 -81.6253 355° North 447 514 41,000  Level Jacksonville Center
07:53PM 31.6300 -81.6383 354° North 447 514 41,000  Level Jacksonville Center
07:54PM 31.7658 -81.6514 355° North 447 514 41,000  Level Jacksonville Center
07:55PM 31.8892 -81.6617 356° North 440 506 41,000  Level Jacksonville Center
07:56PM 32.0019 -81.6750 354° North 445 512 41,000  Level Jacksonville Center
07:57PM 32.1378 -81.6856 356° North 445 512 41,000  Level Jacksonville Center
07:58PM 32.2506 -81.6986 354° North 445 512 41,000  Level Jacksonville Center
07:59PM 32.3886 -81.7092 356° North 445 512 41,000  Level Jacksonville Center
08:00PM 32.5078 -81.7200 356° North 440 506 41,000  Level Jacksonville Center
08:01PM 32.6183 -81.7308 355° North 440 506 41,000  Level Jacksonville Center
08:02PM 32.7353 -81.7392 357° North 435 501 41,000  Level Jacksonville Center
08:03PM 32.8544 -81.7525 355° North 430 495 41,000  Level Jacksonville Center
08:04PM 32.9756 -81.7633 356° North 424 488 41,000  Level Jacksonville Center
08:05PM 33.0928 -81.7744 355° North 424 488 41,000  Level Jacksonville Center
08:06PM 33.2264 -81.7900 354° North 424 488 41,000  Level Jacksonville Center
08:07PM 33.3453 -81.7986 357° North 429 494 41,000  Level Jacksonville Center
08:08PM 33.4667 -81.8119 355° North 429 494 41,000 -360 Level Jacksonville Center
08:11PM 33.7328 -81.8356 356° North 434 499 39,900 -660 Descending Atlanta Center
08:12PM 33.8478 -81.8478 355° North 427 491 38,900 -1,020 Descending Atlanta Center
08:13PM 33.9628 -81.8597 355° North 422 486 37,900 -1,140 Descending Atlanta Center
08:14PM 34.0922 -81.8714 356° North 422 486 36,700 -1,140 Descending Atlanta Center
08:15PM 34.2033 -81.8839 355° North 416 479 35,700 -1,020 Descending Atlanta Center
08:16PM 34.3078 -81.8936 356° North 395 455 34,700 -1,020 Descending Atlanta Center
08:17PM 34.4164 -81.9061 355° North 390 449 33,700 -1,020 Descending Atlanta Center
08:18PM 34.5294 -81.9183 355° North 390 449 32,700 -1,320 Descending Atlanta Center
08:19PM 34.6422 -81.9331 354° North 400 460 31,100 -1,800 Descending Atlanta Center
08:20PM 34.7550 -81.9403 357° North 410 472 29,200 -1,800 Descending Atlanta Center
08:21PM 34.8681 -81.9528 355° North 402 463 27,500 -1,380 Descending Atlanta Center
08:22PM 34.9767 -81.9653 355° North 408 470 26,500 -1,020 Descending Atlanta Center
08:23PM 35.0939 -81.9800 354° North 414 476 25,500 -1,080 Descending Atlanta Center
08:24PM 35.2131 -81.9897 356° North 420 483 24,400 -780 Descending Atlanta Center
08:25PM 35.3236 -82.0022 355° North 420 483 24,000 -240 Descending Atlanta Center
08:26PM 35.4367 -82.0147 355° North 415 478 24,000 -300 Level Atlanta Center
08:27PM 35.5472 -82.0250 356° North 403 464 23,500 -540 Descending Atlanta Center
08:28PM 35.6603 -82.0375 355° North 403 464 23,000 -720 Descending Atlanta Center
08:29PM 35.7814 -82.0497 355° North 403 464 22,100 -1,500 Descending Atlanta Center
08:30PM 35.8858 -82.0600 355° North 397 457 20,000 -2,040 Descending Atlanta Center
08:31PM 35.9925 -82.0678 357° North 387 445 18,100 -2,100 Descending Atlanta Center
08:32PM 36.0906 -82.0808 354° North 376 433 15,900 -2,100 Descending Atlanta Center
08:33PM 36.1825 -82.0889 356° North 345 397 13,900 -1,920 Descending Atlanta Center
08:34PM 36.2578 -82.0997 353° North 320 368 12,100 -1,860 Descending Atlanta Center
08:35PM 36.3433 -82.1081 356° North 303 349 10,200 -1,800 Descending Atlanta Center
08:36PM 36.4144 -82.1167 354° North 280 322 8,600 -1,980 Descending Atlanta Center
08:37PM 36.4833 -82.1228 356° North 251 289 6,300 -2,400 Descending Atlanta Center
08:38PM 36.5522 -82.1289 356° North 246 283 3,800 -1,380 Descending Atlanta Center
08:39PM 36.6086 -82.1381 353° North 222 255 3,600 -360 Descending Atlanta Center
08:40PM 36.6439 -82.1139 29° Northeast 167 192 3,100 -540 Descending Atlanta Center
08:42PM 36.6871 -82.0333 48° Northeast  Level Estimated
08:49PM 36.6871 -82.0333 48° Northeast  Level Estimated